Time;durP1;ratioP1;P1;durP2;ratioP2;P2;SDS_P1;SDS_P2;PMS_P1;PMS_P2;Temp;Humidity;BMP_temperature;BMP_pressure;BME280_temperature;BME280_humidity;BME280_pressure;Samples;Min_cycle;Max_cycle;Signal;HPM_P1;HPM_P2
2023/04/13 04:01:40;;;;;;;1.97;0.80;;;7.30;83.00;;;;;;5480568;23;20565;-77
2023/04/13 04:04:07;;;;;;;1.80;0.70;;;7.20;82.60;;;;;;4974515;28;20497;-77
2023/04/13 04:06:34;;;;;;;1.83;0.80;;;7.20;83.50;;;;;;4974483;28;20442;-77
2023/04/13 04:09:00;;;;;;;1.97;0.80;;;7.30;82.70;;;;;;4974070;28;20504;-77
2023/04/13 04:11:27;;;;;;;6.00;1.20;;;7.40;82.90;;;;;;4974365;28;20470;-78
2023/04/13 04:13:54;;;;;;;2.67;0.80;;;7.20;82.30;;;;;;5083486;23;20510;-74
2023/04/13 04:16:21;;;;;;;2.00;0.80;;;7.30;83.20;;;;;;4974265;28;20463;-76
2023/04/13 04:18:49;;;;;;;1.90;0.80;;;7.20;81.80;;;;;;4973980;28;21021;-77
2023/04/13 04:21:15;;;;;;;2.23;0.90;;;7.10;82.40;;;;;;4974340;28;20504;-77
2023/04/13 04:23:43;;;;;;;2.00;0.80;;;7.10;83.40;;;;;;4974206;28;20501;-77
2023/04/13 04:26:12;;;;;;;2.50;1.20;;;7.20;83.90;;;;;;4974297;28;20454;-77
2023/04/13 04:28:39;;;;;;;3.47;0.80;;;7.40;82.10;;;;;;4974286;28;20478;-77
2023/04/13 04:31:09;;;;;;;1.80;0.70;;;7.40;82.20;;;;;;4978237;28;20504;-77
2023/04/13 04:33:37;;;;;;;1.90;0.90;;;7.40;81.80;;;;;;4977879;28;20472;-77
2023/04/13 04:36:06;;;;;;;2.40;1.03;;;7.40;81.60;;;;;;4978063;28;20500;-77
2023/04/13 04:38:33;;;;;;;3.00;1.87;;;7.40;80.80;;;;;;4977703;28;20962;-76
2023/04/13 04:41:00;;;;;;;2.23;1.07;;;7.30;81.00;;;;;;4977869;28;20454;-77
2023/04/13 04:43:29;;;;;;;3.97;0.93;;;7.40;81.20;;;;;;4977775;28;20485;-77
2023/04/13 04:45:56;;;;;;;2.63;1.10;;;7.40;80.50;;;;;;4977851;28;20460;-77
2023/04/13 04:48:25;;;;;;;2.50;1.20;;;7.40;80.40;;;;;;4977725;28;20569;-77
2023/04/13 04:50:52;;;;;;;2.20;0.90;;;7.40;79.20;;;;;;4977503;28;20838;-77
2023/04/13 04:53:20;;;;;;;2.23;0.83;;;7.30;79.80;;;;;;4977348;28;20458;-77
2023/04/13 04:55:47;;;;;;;2.67;1.17;;;7.30;80.90;;;;;;4977683;28;20517;-77
2023/04/13 04:58:13;;;;;;;2.20;0.80;;;7.60;80.30;;;;;;4977634;28;20446;-77
2023/04/13 05:00:40;;;;;;;2.77;0.80;;;7.70;80.00;;;;;;4977550;28;20508;-77
2023/04/13 05:03:07;;;;;;;1.93;0.90;;;7.60;78.90;;;;;;4977409;28;20458;-77
2023/04/13 05:05:34;;;;;;;3.13;1.00;;;7.60;79.20;;;;;;4977464;28;20445;-77
2023/04/13 05:08:01;;;;;;;3.03;1.10;;;7.80;79.70;;;;;;4977408;28;20490;-77
2023/04/13 05:10:29;;;;;;;2.40;0.80;;;8.00;79.90;;;;;;4977445;28;20463;-77
2023/04/13 05:12:55;;;;;;;1.90;0.90;;;8.00;77.90;;;;;;4977271;28;20464;-77
2023/04/13 05:15:22;;;;;;;2.13;0.70;;;8.00;78.80;;;;;;4976984;28;20482;-77
2023/04/13 05:17:49;;;;;;;2.00;0.80;;;7.90;77.90;;;;;;4976890;28;20445;-77
2023/04/13 05:20:18;;;;;;;3.20;2.10;;;7.90;78.90;;;;;;4977137;28;20456;-77
2023/04/13 05:22:45;;;;;;;2.60;1.10;;;7.80;78.00;;;;;;4976802;28;20541;-77
2023/04/13 05:25:12;;;;;;;3.73;1.00;;;7.80;78.50;;;;;;4977042;28;20561;-78
2023/04/13 05:27:40;;;;;;;2.83;0.80;;;7.80;77.50;;;;;;4976942;28;20850;-77
2023/04/13 05:30:08;;;;;;;2.20;1.60;;;7.70;78.30;;;;;;4976665;28;20874;-77
2023/04/13 05:32:35;;;;;;;2.10;0.90;;;7.80;79.00;;;;;;4976592;28;20521;-77
2023/04/13 05:35:03;;;;;;;2.50;1.33;;;7.80;79.10;;;;;;4976945;28;20471;-77
2023/04/13 05:37:29;;;;;;;1.80;0.80;;;7.80;78.00;;;;;;4976863;28;20481;-77
2023/04/13 05:39:57;;;;;;;1.77;0.73;;;7.70;77.70;;;;;;4976353;28;20451;-78
2023/04/13 05:42:24;;;;;;;1.90;0.80;;;7.80;79.00;;;;;;4976060;28;20454;-77
2023/04/13 05:44:52;;;;;;;2.60;1.20;;;7.80;77.60;;;;;;4976609;28;20474;-77
2023/04/13 05:47:18;;;;;;;2.00;0.80;;;7.90;78.20;;;;;;4976633;28;20450;-77
2023/04/13 05:49:45;;;;;;;2.90;1.00;;;7.90;78.70;;;;;;4976227;28;21003;-77
2023/04/13 05:52:12;;;;;;;4.20;1.07;;;7.80;77.00;;;;;;4976240;28;20878;-77
2023/04/13 05:54:38;;;;;;;2.50;1.40;;;7.70;77.80;;;;;;4976479;28;20528;-78
2023/04/13 05:57:05;;;;;;;3.30;0.90;;;7.70;78.90;;;;;;4976417;28;20501;-77
2023/04/13 05:59:32;;;;;;;2.20;0.80;;;7.70;78.70;;;;;;4976266;28;20451;-77
2023/04/13 06:02:01;;;;;;;2.40;1.10;;;7.70;77.90;;;;;;4976562;28;20454;-77
2023/04/13 06:04:28;;;;;;;2.10;0.80;;;7.60;78.00;;;;;;4976319;28;20478;-77
2023/04/13 06:06:56;;;;;;;4.40;1.10;;;7.60;77.50;;;;;;4976398;28;20553;-77
2023/04/13 06:09:30;;;;;;;3.17;1.00;;;7.50;77.50;;;;;;4976227;28;20493;-76
2023/04/13 06:11:58;;;;;;;2.87;1.43;;;7.40;77.50;;;;;;4976150;28;20442;-75
2023/04/13 06:14:25;;;;;;;2.43;1.10;;;7.40;78.50;;;;;;4975826;28;20490;-77
2023/04/13 06:16:52;;;;;;;2.30;0.97;;;7.50;79.00;;;;;;4976142;28;20462;-74
2023/04/13 06:19:20;;;;;;;2.20;1.10;;;7.60;82.30;;;;;;4976012;28;20450;-77
2023/04/13 06:21:47;;;;;;;1.87;0.80;;;7.60;77.80;;;;;;4975778;28;20894;-77
2023/04/13 06:24:14;;;;;;;2.30;1.00;;;7.60;77.90;;;;;;4975800;28;20594;-76
2023/04/13 06:26:41;;;;;;;1.80;0.90;;;7.70;77.40;;;;;;4975896;28;20513;-76
2023/04/13 06:29:08;;;;;;;2.67;1.20;;;7.70;76.70;;;;;;4975871;28;20478;-76
2023/04/13 06:31:35;;;;;;;2.43;1.00;;;7.70;77.00;;;;;;4975795;28;20450;-76
2023/04/13 06:34:02;;;;;;;2.20;1.00;;;7.60;76.70;;;;;;4975633;28;20476;-77
2023/04/13 06:36:30;;;;;;;4.23;1.30;;;7.50;76.90;;;;;;4975381;28;20947;-75
2023/04/13 06:38:58;;;;;;;2.40;0.90;;;7.50;77.00;;;;;;4975703;28;20477;-76
2023/04/13 06:41:26;;;;;;;2.87;1.27;;;7.60;78.00;;;;;;4975618;28;20454;-76
2023/04/13 06:43:52;;;;;;;3.10;1.20;;;7.90;77.00;;;;;;4975788;28;20525;-77
2023/04/13 06:46:19;;;;;;;3.00;0.90;;;7.90;75.50;;;;;;4975656;28;20869;-76
2023/04/13 06:48:46;;;;;;;2.00;0.90;;;8.00;76.90;;;;;;4975940;28;20482;-77
2023/04/13 06:51:13;;;;;;;2.20;0.80;;;8.00;74.90;;;;;;4975571;28;20553;-77
2023/04/13 06:53:41;;;;;;;2.40;0.80;;;8.10;76.00;;;;;;4975566;28;20474;-76
2023/04/13 06:56:08;;;;;;;2.57;0.93;;;8.20;75.10;;;;;;4975881;28;20462;-76
2023/04/13 06:58:35;;;;;;;1.90;1.00;;;8.20;74.90;;;;;;4976218;28;20458;-77
2023/04/13 07:01:02;;;;;;;2.13;0.80;;;8.10;76.00;;;;;;4975901;28;20462;-75
2023/04/13 07:03:29;;;;;;;3.03;1.03;;;8.30;76.00;;;;;;4975466;28;20478;-76
2023/04/13 07:05:55;;;;;;;2.87;1.23;;;8.50;75.80;;;;;;4975407;28;20843;-77
2023/04/13 07:08:22;;;;;;;2.30;1.00;;;8.80;74.50;;;;;;4975442;28;20581;-77
2023/04/13 07:10:54;;;;;;;2.60;1.00;;;9.10;75.80;;;;;;4975978;28;20461;-77
2023/04/13 07:13:21;;;;;;;4.20;1.00;;;9.40;74.50;;;;;;4976119;28;20998;-76
2023/04/13 07:15:47;;;;;;;2.10;1.10;;;9.40;73.40;;;;;;4975606;28;20991;-76
2023/04/13 07:18:14;;;;;;;2.00;0.90;;;9.20;71.90;;;;;;4975649;28;20999;-75
2023/04/13 07:20:41;;;;;;;2.73;0.83;;;8.90;72.20;;;;;;4975222;28;21020;-76
2023/04/13 07:23:08;;;;;;;2.70;1.10;;;8.70;73.60;;;;;;4975140;28;20864;-76
2023/04/13 07:25:35;;;;;;;2.37;1.00;;;8.50;74.80;;;;;;4975369;28;20458;-76
2023/04/13 07:28:03;;;;;;;5.53;1.30;;;8.40;75.00;;;;;;4975918;28;20446;-74
2023/04/13 07:30:30;;;;;;;2.27;0.80;;;8.10;75.30;;;;;;4975291;28;20975;-73
2023/04/13 07:32:56;;;;;;;2.47;0.90;;;7.70;76.40;;;;;;4975172;28;20446;-74
2023/04/13 07:35:23;;;;;;;2.90;1.10;;;7.60;77.10;;;;;;4975228;28;20435;-76
2023/04/13 07:37:50;;;;;;;2.30;0.90;;;7.70;77.70;;;;;;4975743;28;20453;-76
2023/04/13 07:40:17;;;;;;;2.70;1.17;;;7.80;78.30;;;;;;4975749;28;20446;-76
2023/04/13 07:42:44;;;;;;;3.60;1.07;;;8.00;78.20;;;;;;4975494;28;20451;-76
2023/04/13 07:45:14;;;;;;;2.67;1.30;;;7.90;75.70;;;;;;4975568;28;20466;-75
2023/04/13 07:47:41;;;;;;;3.13;1.10;;;7.80;76.40;;;;;;4975511;28;20452;-75
2023/04/13 07:50:08;;;;;;;2.57;1.10;;;8.00;77.70;;;;;;4974638;28;20577;-75
2023/04/13 07:52:35;;;;;;;2.37;1.20;;;8.00;77.30;;;;;;4974512;28;20466;-74
2023/04/13 07:55:02;;;;;;;3.23;1.30;;;7.90;77.00;;;;;;4974140;28;20849;-74
2023/04/13 07:57:29;;;;;;;2.70;1.20;;;7.80;78.80;;;;;;4974270;28;20442;-76
2023/04/13 07:59:55;;;;;;;2.13;0.90;;;7.90;77.60;;;;;;4974495;28;20457;-75
2023/04/13 08:02:24;;;;;;;2.37;1.10;;;8.00;77.20;;;;;;4974571;28;20508;-75
2023/04/13 08:04:51;;;;;;;2.30;1.17;;;8.10;77.60;;;;;;4976456;28;21054;-75
2023/04/13 08:07:18;;;;;;;4.23;1.20;;;8.30;78.30;;;;;;4978546;28;20450;-75
2023/04/13 08:09:47;;;;;;;2.40;1.13;;;8.40;77.30;;;;;;4978443;28;20565;-75
2023/04/13 08:12:14;;;;;;;3.43;1.40;;;8.50;75.60;;;;;;4978358;28;20446;-74
2023/04/13 08:14:41;;;;;;;2.40;1.00;;;8.50;74.90;;;;;;4977893;28;21007;-75
2023/04/13 08:17:07;;;;;;;2.47;1.30;;;8.60;76.30;;;;;;4978093;28;20806;-74
2023/04/13 08:19:35;;;;;;;1.90;1.00;;;8.70;75.60;;;;;;4978374;28;20442;-75
2023/04/13 08:22:03;;;;;;;2.47;1.00;;;8.80;74.40;;;;;;4978038;28;20943;-75
2023/04/13 08:24:29;;;;;;;2.70;1.50;;;8.80;74.50;;;;;;4978355;28;20480;-73
2023/04/13 08:26:57;;;;;;;3.63;1.30;;;8.90;75.30;;;;;;4978177;28;20450;-75
2023/04/13 08:29:24;;;;;;;2.53;1.10;;;9.30;74.90;;;;;;4978501;28;20482;-75
2023/04/13 08:31:51;;;;;;;2.73;1.17;;;9.60;73.40;;;;;;4978045;28;20982;-75
2023/04/13 08:34:18;;;;;;;3.60;1.30;;;9.90;73.00;;;;;;4978229;28;20469;-76
2023/04/13 08:36:46;;;;;;;3.33;1.10;;;9.90;71.40;;;;;;4978100;28;20446;-75
2023/04/13 08:39:13;;;;;;;2.93;1.03;;;9.60;72.10;;;;;;4977941;28;20454;-75
2023/04/13 08:41:44;;;;;;;3.10;1.10;;;9.40;74.00;;;;;;4977626;28;20982;-74
2023/04/13 08:44:12;;;;;;;2.47;1.10;;;9.40;73.10;;;;;;4978022;28;20532;-76
2023/04/13 08:46:41;;;;;;;2.80;1.50;;;9.40;73.80;;;;;;4977864;28;20601;-75
2023/04/13 08:49:08;;;;;;;1.90;0.90;;;9.40;76.60;;;;;;4977290;28;20493;-75
2023/04/13 08:51:35;;;;;;;2.70;1.43;;;9.30;75.60;;;;;;4977611;28;20442;-75
2023/04/13 08:54:04;;;;;;;2.50;1.00;;;9.30;78.00;;;;;;4977642;28;20475;-75
2023/04/13 08:56:31;;;;;;;5.07;1.50;;;9.30;76.90;;;;;;4977788;28;20460;-74
2023/04/13 08:59:03;;;;;;;2.10;0.97;;;9.40;76.30;;;;;;4977557;28;20956;-73
2023/04/13 09:01:33;;;;;;;2.47;1.27;;;9.30;76.50;;;;;;4977748;28;20430;-73
2023/04/13 09:04:06;;;;;;;2.10;1.10;;;9.40;76.00;;;;;;4977543;28;20473;-74
2023/04/13 09:06:36;;;;;;;3.50;1.37;;;9.40;76.30;;;;;;4977650;28;20534;-74
2023/04/13 09:09:06;;;;;;;2.20;1.10;;;9.40;74.70;;;;;;4977727;28;20856;-74
2023/04/13 09:11:33;;;;;;;3.30;1.23;;;9.50;75.10;;;;;;4977454;28;20446;-74
2023/04/13 09:13:59;;;;;;;3.60;1.80;;;9.50;75.50;;;;;;4977619;28;20540;-74
2023/04/13 09:16:26;;;;;;;2.97;0.97;;;9.40;75.00;;;;;;4977329;28;20446;-72
2023/04/13 09:18:55;;;;;;;3.50;1.40;;;9.20;75.20;;;;;;4977139;28;20446;-75
2023/04/13 09:21:22;;;;;;;2.23;1.07;;;9.30;77.20;;;;;;4977757;28;20450;-75
2023/04/13 09:23:56;;;;;;;3.40;1.63;;;9.50;75.60;;;;;;4977487;28;20462;-74
2023/04/13 09:26:25;;;;;;;2.60;1.10;;;9.80;77.60;;;;;;4977348;28;20454;-73
2023/04/13 09:28:55;;;;;;;4.47;1.40;;;10.20;75.70;;;;;;4977388;28;20454;-72
2023/04/13 09:31:22;;;;;;;2.50;1.43;;;10.10;72.30;;;;;;4977762;28;20482;-72
2023/04/13 09:33:50;;;;;;;3.83;1.97;;;10.00;73.80;;;;;;4977352;28;20465;-72
2023/04/13 09:36:19;;;;;;;2.00;1.10;;;10.20;73.80;;;;;;4977166;28;20460;-76
2023/04/13 09:38:51;;;;;;;2.83;1.27;;;10.50;72.00;;;;;;4977225;28;20571;-74
2023/04/13 09:41:30;;;;;;;2.60;1.53;;;10.60;70.10;;;;;;4977258;28;20434;-75
2023/04/13 09:43:57;;;;;;;2.30;1.10;;;10.90;71.50;;;;;;4977134;28;20466;-75
2023/04/13 09:46:24;;;;;;;2.10;1.00;;;11.10;70.40;;;;;;4977077;28;20454;-72
2023/04/13 09:48:58;;;;;;;3.47;1.43;;;11.00;69.50;;;;;;4976497;28;20950;-73
2023/04/13 09:51:26;;;;;;;5.50;1.40;;;10.90;71.10;;;;;;4976951;28;20444;-72
2023/04/13 09:53:53;;;;;;;2.30;1.00;;;10.80;68.50;;;;;;4976877;28;20842;-74
2023/04/13 09:56:20;;;;;;;2.43;0.93;;;10.40;69.00;;;;;;4977136;28;20545;-74
2023/04/13 09:58:49;;;;;;;3.53;1.23;;;10.20;70.70;;;;;;4976660;28;21015;-74
2023/04/13 10:01:15;;;;;;;3.23;1.20;;;10.10;70.10;;;;;;4976857;28;20940;-74
2023/04/13 10:03:43;;;;;;;2.47;1.27;;;10.00;70.30;;;;;;4976793;28;20520;-75
2023/04/13 10:06:09;;;;;;;2.63;1.17;;;9.90;70.20;;;;;;4978007;28;20528;-74
2023/04/13 10:08:37;;;;;;;3.20;1.50;;;9.70;71.70;;;;;;4977188;28;20458;-74
2023/04/13 10:11:09;;;;;;;2.30;1.10;;;9.70;72.80;;;;;;4976958;28;20485;-73
2023/04/13 10:13:44;;;;;;;3.70;1.17;;;9.90;72.80;;;;;;5000650;23;20855;-72
2023/04/13 10:16:36;;;;;;;3.27;1.30;;;9.90;71.90;;;;;;4978017;28;20951;-72
2023/04/13 10:19:07;;;;;;;2.90;1.30;;;10.00;72.50;;;;;;4977649;28;20454;-69
2023/04/13 10:21:38;;;;;;;2.50;1.10;;;10.10;71.60;;;;;;4978178;28;20439;-69
2023/04/13 10:24:06;;;;;;;2.30;1.20;;;10.30;73.60;;;;;;4976439;28;20498;-69
2023/04/13 10:26:34;;;;;;;3.37;1.50;;;10.40;72.30;;;;;;4975386;28;20462;-70
2023/04/13 10:29:02;;;;;;;2.47;1.10;;;10.40;72.50;;;;;;4975972;28;20451;-69
2023/04/13 10:31:38;;;;;;;2.70;1.20;;;10.70;71.10;;;;;;4975815;28;20943;-69
2023/04/13 10:34:05;;;;;;;3.40;1.20;;;10.80;65.20;;;;;;4975633;28;20474;-70
2023/04/13 10:36:39;;;;;;;3.37;1.10;;;10.90;66.00;;;;;;4975785;28;20446;-70
2023/04/13 10:39:07;;;;;;;3.60;1.60;;;10.90;64.60;;;;;;4975738;28;20447;-69
2023/04/13 10:41:34;;;;;;;3.03;1.27;;;11.00;65.70;;;;;;4976046;28;20458;-69
2023/04/13 10:44:01;;;;;;;3.80;1.30;;;11.00;64.20;;;;;;4975294;28;20995;-70
2023/04/13 10:46:28;;;;;;;2.90;1.10;;;10.90;64.70;;;;;;4976279;28;20545;-69
2023/04/13 10:48:57;;;;;;;2.77;1.20;;;11.00;64.30;;;;;;4975669;28;20870;-70
2023/04/13 10:51:24;;;;;;;2.30;1.00;;;11.20;63.70;;;;;;4975420;28;20486;-71
2023/04/13 10:53:51;;;;;;;2.47;1.20;;;11.30;64.50;;;;;;4975358;28;20462;-70
2023/04/13 10:56:18;;;;;;;3.53;1.20;;;11.40;64.90;;;;;;4975399;28;20492;-69
2023/04/13 10:58:51;;;;;;;2.80;1.27;;;11.30;63.00;;;;;;4975380;28;20448;-69
2023/04/13 11:01:19;;;;;;;2.70;1.00;;;11.20;63.60;;;;;;4976947;28;20427;-70
2023/04/13 11:03:46;;;;;;;2.37;1.03;;;11.40;64.40;;;;;;4978016;28;20494;-69
2023/04/13 11:06:15;;;;;;;4.70;1.57;;;11.50;63.50;;;;;;4977440;28;20450;-70
2023/04/13 11:08:42;;;;;;;3.80;1.60;;;11.30;67.00;;;;;;4976708;28;20443;-70
2023/04/13 11:11:11;;;;;;;3.03;1.60;;;11.50;67.20;;;;;;4977937;28;20488;-70
2023/04/13 11:13:46;;;;;;;3.47;1.17;;;11.60;65.80;;;;;;4976302;28;20463;-70
2023/04/13 11:16:13;;;;;;;2.70;1.20;;;11.40;65.20;;;;;;4976533;28;20445;-69
2023/04/13 11:18:40;;;;;;;3.40;1.23;;;11.50;67.30;;;;;;4976336;28;20931;-70
2023/04/13 11:21:15;;;;;;;2.00;1.33;;;11.50;64.90;;;;;;4975623;28;20450;-70
2023/04/13 11:23:42;;;;;;;2.40;1.20;;;11.70;66.20;;;;;;4975398;28;20473;-70
2023/04/13 11:26:10;;;;;;;6.60;1.63;;;11.70;65.50;;;;;;4975384;28;20454;-70
2023/04/13 11:28:38;;;;;;;3.73;1.50;;;11.70;64.90;;;;;;4975888;28;20935;-70
2023/04/13 11:31:06;;;;;;;2.80;1.10;;;11.70;65.50;;;;;;4975669;28;20510;-70
2023/04/13 11:33:34;;;;;;;2.43;1.30;;;11.60;64.60;;;;;;4974951;28;21014;-70
2023/04/13 11:36:02;;;;;;;2.43;1.20;;;11.70;65.00;;;;;;4975808;28;20447;-70
2023/04/13 11:38:31;;;;;;;2.50;1.10;;;11.80;66.10;;;;;;4974871;28;20536;-71
2023/04/13 11:41:02;;;;;;;2.70;1.57;;;11.70;69.60;;;;;;4976066;28;20529;-71
2023/04/13 11:43:29;;;;;;;3.23;1.23;;;11.60;69.70;;;;;;4975582;28;20445;-71
2023/04/13 11:45:56;;;;;;;2.33;1.20;;;11.60;71.50;;;;;;4975340;28;20450;-70
2023/04/13 11:48:23;;;;;;;2.90;1.10;;;11.50;71.50;;;;;;4975503;28;20476;-70
2023/04/13 11:50:50;;;;;;;2.50;1.20;;;11.50;72.40;;;;;;4974779;28;20485;-70
2023/04/13 11:53:18;;;;;;;3.13;1.40;;;11.50;73.40;;;;;;4975107;28;20449;-70
2023/04/13 11:55:47;;;;;;;3.50;1.13;;;11.70;73.00;;;;;;4974916;28;20982;-70
2023/04/13 11:58:17;;;;;;;2.73;1.10;;;11.70;72.10;;;;;;4974989;28;20478;-69
2023/04/13 12:00:45;;;;;;;3.80;1.30;;;11.50;73.00;;;;;;4975587;28;20435;-69
2023/04/13 12:03:16;;;;;;;2.10;1.17;;;11.70;73.40;;;;;;4975040;28;20454;-70
2023/04/13 12:05:46;;;;;;;2.77;1.30;;;12.20;75.00;;;;;;4974821;28;20793;-73
2023/04/13 12:08:22;;;;;;;2.63;1.23;;;12.70;78.40;;;;;;4974845;28;20806;-71
2023/04/13 12:10:57;;;;;;;3.53;1.27;;;13.00;71.80;;;;;;4974747;28;20604;-71
2023/04/13 12:13:24;;;;;;;2.10;1.10;;;13.20;71.80;;;;;;4974760;28;20446;-70
2023/04/13 12:15:52;;;;;;;2.30;1.10;;;13.50;69.40;;;;;;4975462;28;20442;-71
2023/04/13 12:18:19;;;;;;;5.00;1.93;;;13.70;68.50;;;;;;4974571;28;20466;-71
2023/04/13 12:20:47;;;;;;;2.90;1.30;;;13.70;67.60;;;;;;4974775;28;21011;-71
2023/04/13 12:23:18;;;;;;;2.10;1.10;;;13.60;65.90;;;;;;4974948;28;20460;-70
2023/04/13 12:25:56;;;;;;;4.17;1.13;;;13.20;68.50;;;;;;4974750;28;20446;-71
2023/04/13 12:28:27;;;;;;;2.20;1.00;;;12.60;71.60;;;;;;4974771;28;20442;-71
2023/04/13 12:30:54;;;;;;;2.37;1.00;;;12.10;74.10;;;;;;4974755;28;20477;-70
2023/04/13 12:33:21;;;;;;;3.50;1.10;;;12.20;74.30;;;;;;4975408;28;20458;-70
2023/04/13 12:35:47;;;;;;;1.90;1.00;;;12.30;74.10;;;;;;4975419;28;20454;-70
2023/04/13 12:38:14;;;;;;;2.40;1.00;;;12.30;73.10;;;;;;4974506;28;20964;-71
2023/04/13 12:40:41;;;;;;;2.83;1.13;;;12.60;74.70;;;;;;4974839;28;20477;-72
2023/04/13 12:43:09;;;;;;;2.50;1.17;;;13.00;77.80;;;;;;4975033;28;20869;-71
2023/04/13 12:45:36;;;;;;;1.77;0.83;;;13.30;72.90;;;;;;4975437;28;20435;-73
2023/04/13 12:48:03;;;;;;;2.97;0.80;;;13.10;68.10;;;;;;4975197;28;20944;-71
2023/04/13 12:50:30;;;;;;;1.80;0.90;;;13.00;71.20;;;;;;4976477;28;20485;-70
2023/04/13 12:52:56;;;;;;;2.00;1.00;;;12.70;67.00;;;;;;4978981;28;20513;-71
2023/04/13 12:55:23;;;;;;;2.20;0.93;;;12.50;71.00;;;;;;4978070;28;20485;-71
2023/04/13 12:57:50;;;;;;;2.00;1.20;;;12.40;70.50;;;;;;4978304;28;20454;-69
2023/04/13 13:00:20;;;;;;;2.20;0.80;;;12.60;70.80;;;;;;4977549;28;20465;-71
2023/04/13 13:02:47;;;;;;;2.10;1.00;;;12.50;70.30;;;;;;4977596;28;20453;-71
2023/04/13 13:05:15;;;;;;;1.80;0.93;;;11.90;70.00;;;;;;4977513;28;20569;-71
2023/04/13 13:07:42;;;;;;;4.27;1.10;;;11.80;71.70;;;;;;4977495;28;20536;-71
2023/04/13 13:10:09;;;;;;;2.10;0.90;;;12.00;70.40;;;;;;4977422;28;20482;-70
2023/04/13 13:12:36;;;;;;;2.13;1.07;;;12.00;71.70;;;;;;4976971;28;21019;-71
2023/04/13 13:15:04;;;;;;;2.10;0.90;;;11.70;71.90;;;;;;4976891;28;20908;-71
2023/04/13 13:17:32;;;;;;;2.93;1.00;;;11.70;72.10;;;;;;4977065;28;21042;-71
2023/04/13 13:19:59;;;;;;;2.53;1.03;;;12.10;72.20;;;;;;4977062;28;20814;-71
2023/04/13 13:22:27;;;;;;;2.73;1.10;;;12.20;72.80;;;;;;4977057;28;20943;-71
2023/04/13 13:24:55;;;;;;;2.53;0.90;;;12.20;71.90;;;;;;4977107;28;20477;-72
2023/04/13 13:27:21;;;;;;;2.40;1.10;;;12.40;71.70;;;;;;4976841;28;20457;-71
2023/04/13 13:29:48;;;;;;;1.80;0.90;;;12.70;71.50;;;;;;4977047;28;20450;-70
2023/04/13 13:32:15;;;;;;;2.03;1.13;;;12.60;69.90;;;;;;4976948;28;20549;-69
2023/04/13 13:34:43;;;;;;;2.43;0.90;;;12.50;70.30;;;;;;4977373;28;20501;-71
2023/04/13 13:37:10;;;;;;;1.93;0.80;;;12.50;70.60;;;;;;4977308;28;20453;-70
2023/04/13 13:39:38;;;;;;;1.70;0.77;;;12.40;70.60;;;;;;4977446;28;20450;-71
2023/04/13 13:42:05;;;;;;;2.43;0.80;;;12.40;71.40;;;;;;4977149;28;20454;-70
2023/04/13 13:44:31;;;;;;;3.20;1.17;;;12.40;72.10;;;;;;4977598;28;20481;-71
2023/04/13 13:46:58;;;;;;;2.57;0.80;;;12.50;72.40;;;;;;4976949;28;20457;-70
2023/04/13 13:49:25;;;;;;;2.07;1.07;;;12.70;73.40;;;;;;4976947;28;20454;-71
2023/04/13 13:51:53;;;;;;;3.13;1.93;;;12.90;72.20;;;;;;4977317;28;20858;-71
2023/04/13 13:54:21;;;;;;;3.10;1.20;;;12.60;70.40;;;;;;4977366;28;20474;-71
2023/04/13 13:56:48;;;;;;;1.87;0.77;;;12.50;70.70;;;;;;4976977;28;20541;-71
2023/04/13 13:59:14;;;;;;;2.47;0.90;;;12.70;69.50;;;;;;4977633;28;20454;-70
2023/04/13 14:01:41;;;;;;;2.40;0.90;;;12.30;68.60;;;;;;4975594;28;20446;-71
2023/04/13 14:04:08;;;;;;;2.17;1.10;;;12.50;70.00;;;;;;4977145;28;20474;-71
2023/04/13 14:06:35;;;;;;;2.20;1.00;;;12.50;70.80;;;;;;4977305;28;20505;-70
2023/04/13 14:09:04;;;;;;;2.00;0.90;;;12.20;71.60;;;;;;4977411;28;20465;-71
2023/04/13 14:11:31;;;;;;;2.20;0.80;;;12.40;71.50;;;;;;4976962;28;20573;-69
2023/04/13 14:13:58;;;;;;;2.10;0.87;;;12.50;71.60;;;;;;4977353;28;20478;-70
2023/04/13 14:16:25;;;;;;;1.80;0.90;;;12.20;71.40;;;;;;4977231;28;20469;-69
2023/04/13 14:18:52;;;;;;;1.70;0.80;;;12.00;72.20;;;;;;4976342;28;20461;-71
2023/04/13 14:21:20;;;;;;;2.07;1.00;;;11.80;72.90;;;;;;4976904;28;20442;-70
2023/04/13 14:23:49;;;;;;;2.57;1.20;;;11.70;73.50;;;;;;4976450;28;20844;-71
2023/04/13 14:26:17;;;;;;;2.00;0.90;;;11.50;74.10;;;;;;4977034;28;20458;-71
2023/04/13 14:28:44;;;;;;;1.93;0.80;;;11.10;76.00;;;;;;4976912;28;20446;-70
2023/04/13 14:31:13;;;;;;;1.80;0.70;;;11.00;76.30;;;;;;4977572;28;20489;-70
2023/04/13 14:33:41;;;;;;;1.70;0.77;;;11.10;75.80;;;;;;4976792;28;20561;-72
2023/04/13 14:36:09;;;;;;;2.53;1.33;;;11.10;74.50;;;;;;4977524;28;20458;-71
2023/04/13 14:38:36;;;;;;;3.07;1.27;;;10.70;76.20;;;;;;4976145;28;20465;-72
2023/04/13 14:41:03;;;;;;;1.97;0.80;;;10.30;76.80;;;;;;4976171;28;20812;-71
2023/04/13 14:43:31;;;;;;;2.00;1.00;;;10.40;76.70;;;;;;4976454;28;20479;-72
2023/04/13 14:45:58;;;;;;;2.27;1.00;;;10.00;77.40;;;;;;4977223;28;20509;-71
2023/04/13 14:48:25;;;;;;;2.50;1.30;;;9.90;78.90;;;;;;4976374;28;20446;-71
2023/04/13 14:50:51;;;;;;;1.90;0.90;;;9.90;78.60;;;;;;4975724;28;20481;-71
2023/04/13 14:53:18;;;;;;;1.80;0.80;;;10.10;78.00;;;;;;4975383;28;20446;-72
2023/04/13 14:55:46;;;;;;;2.50;1.20;;;10.40;76.80;;;;;;4975456;28;20454;-70
2023/04/13 14:58:12;;;;;;;2.33;1.20;;;10.30;76.00;;;;;;4975400;28;20541;-68
2023/04/13 15:00:40;;;;;;;2.20;1.00;;;10.20;77.10;;;;;;4975385;28;20453;-70
2023/04/13 15:03:08;;;;;;;2.30;1.20;;;10.30;77.70;;;;;;4975305;28;20462;-71
2023/04/13 15:05:37;;;;;;;2.97;1.20;;;10.40;78.10;;;;;;4975188;28;20466;-72
2023/04/13 15:08:04;;;;;;;3.13;1.20;;;10.50;74.10;;;;;;4975254;28;20449;-72
2023/04/13 15:10:33;;;;;;;2.20;1.10;;;10.60;75.00;;;;;;4975218;28;20445;-71
2023/04/13 15:13:00;;;;;;;1.97;0.90;;;10.60;74.90;;;;;;4974986;28;20891;-70
2023/04/13 15:15:27;;;;;;;1.97;0.80;;;10.20;75.60;;;;;;4974783;28;20477;-72
2023/04/13 15:17:55;;;;;;;1.77;0.80;;;9.90;77.80;;;;;;4975227;28;20446;-72
2023/04/13 15:20:22;;;;;;;1.90;0.80;;;9.80;78.30;;;;;;4975057;28;20446;-71
2023/04/13 15:22:48;;;;;;;2.20;0.83;;;9.80;78.60;;;;;;4975053;28;20496;-72
2023/04/13 15:25:15;;;;;;;2.30;0.97;;;9.40;78.50;;;;;;4975037;28;20607;-71
2023/04/13 15:27:42;;;;;;;1.73;0.70;;;9.60;79.20;;;;;;4974952;28;20453;-72
2023/04/13 15:30:09;;;;;;;1.90;0.90;;;9.70;78.50;;;;;;4974990;28;20446;-70
2023/04/13 15:32:36;;;;;;;2.10;1.07;;;9.70;78.60;;;;;;4975606;28;20513;-70
2023/04/13 15:35:04;;;;;;;4.13;1.20;;;9.80;79.30;;;;;;4974964;28;20466;-68
2023/04/13 15:37:31;;;;;;;2.37;0.90;;;10.00;79.50;;;;;;4974715;28;20807;-71
2023/04/13 15:39:58;;;;;;;1.90;0.80;;;9.90;79.60;;;;;;4974838;28;20446;-71
2023/04/13 15:42:24;;;;;;;1.80;0.70;;;9.70;79.20;;;;;;4975715;28;20528;-71
2023/04/13 15:44:52;;;;;;;1.90;1.00;;;9.60;79.70;;;;;;4974778;28;20472;-71
2023/04/13 15:47:19;;;;;;;2.40;1.00;;;9.60;80.20;;;;;;4974851;28;20465;-71
2023/04/13 15:49:45;;;;;;;2.07;0.90;;;9.60;80.60;;;;;;4975787;28;20458;-71
2023/04/13 15:52:14;;;;;;;2.30;1.20;;;9.70;80.70;;;;;;4979555;28;20482;-72
2023/04/13 15:54:40;;;;;;;1.90;0.83;;;10.00;80.30;;;;;;4974906;28;20888;-70
2023/04/13 15:57:07;;;;;;;2.50;0.97;;;10.10;79.30;;;;;;4974727;28;20549;-71
2023/04/13 15:59:34;;;;;;;1.97;0.80;;;9.60;80.30;;;;;;4974824;28;20446;-70
2023/04/13 16:02:01;;;;;;;2.60;0.90;;;9.50;81.90;;;;;;4974500;28;20461;-71
2023/04/13 16:04:28;;;;;;;1.97;0.97;;;9.50;81.30;;;;;;4974579;28;20470;-70
2023/04/13 16:06:54;;;;;;;3.30;1.00;;;9.60;80.70;;;;;;4974288;28;20513;-70
2023/04/13 16:09:23;;;;;;;2.93;1.70;;;9.90;80.60;;;;;;4974268;28;20488;-71
2023/04/13 16:11:53;;;;;;;3.00;1.40;;;9.90;80.50;;;;;;4974294;28;20481;-72
2023/04/13 16:14:20;;;;;;;2.77;1.10;;;9.70;80.80;;;;;;4989010;23;20498;-75
2023/04/13 16:16:52;;;;;;;2.00;0.80;;;9.40;81.10;;;;;;4974342;28;20454;-75
2023/04/13 16:19:19;;;;;;;1.97;0.90;;;9.30;81.40;;;;;;4975077;28;20439;-72
2023/04/13 16:21:49;;;;;;;2.20;0.90;;;9.40;81.00;;;;;;4974282;28;20496;-73
2023/04/13 16:24:17;;;;;;;2.03;1.00;;;9.40;80.50;;;;;;4974213;28;20589;-74
2023/04/13 16:26:45;;;;;;;2.40;1.10;;;9.40;81.40;;;;;;4977503;28;20967;-73
2023/04/13 16:29:12;;;;;;;2.33;1.00;;;9.40;81.50;;;;;;4978182;28;20465;-74
2023/04/13 16:31:43;;;;;;;3.47;1.00;;;9.30;81.50;;;;;;4977993;28;20485;-74
2023/04/13 16:34:10;;;;;;;2.37;0.90;;;9.50;81.50;;;;;;4978428;28;20470;-73
2023/04/13 16:36:36;;;;;;;2.57;1.07;;;9.40;81.10;;;;;;4978087;28;20865;-74
2023/04/13 16:39:06;;;;;;;2.50;1.10;;;9.40;81.70;;;;;;4978051;28;20489;-74
2023/04/13 16:41:33;;;;;;;2.10;1.00;;;9.60;81.30;;;;;;4978110;28;20450;-74
2023/04/13 16:44:01;;;;;;;1.70;0.80;;;9.70;80.40;;;;;;4977834;28;20529;-74
2023/04/13 16:46:28;;;;;;;2.23;1.00;;;9.60;80.30;;;;;;4977845;28;20472;-74
2023/04/13 16:48:55;;;;;;;2.30;1.20;;;9.60;80.60;;;;;;4977699;28;20450;-74
2023/04/13 16:51:22;;;;;;;1.80;0.80;;;9.80;80.50;;;;;;4977625;28;20481;-74
2023/04/13 16:53:48;;;;;;;2.30;1.13;;;9.70;80.30;;;;;;4977652;28;20456;-75
2023/04/13 16:56:15;;;;;;;1.80;0.90;;;9.50;81.50;;;;;;4977826;28;20523;-74